Logo AVAMET
Benvolgut visitant, si us plau, ingressa Recuperar contrasenya
AVAMET paisatges

Inforatge Xeraco Ajuntament

Dades diàries. Acumulats / Últims 30 dies disponibles

Data Temperatura (°C) Humitat rel. (%) Pressió rel. (hPa) Vent (km/h) Precipitació
Mínima Mitjana Màxima Amplitud
tèrmica
Mínima Mitjana Màxima Mínima Mitjana Màxima Predom. Mitjana Ràfega
màxima
Total
(mm)
Índex-n
Mínima Mitjana Màxima Mínima Mitjana Màxima n
0 a 1
P0 max
mm 5'
Dades mensuals acumulades fins l'últim dia disponible
10/2020 12,2 15,8 18,9 20,4 19,8 25,0 32,5 20,3 23 58 92 992 1.017 1.026   4,9 69,2 5,6
Dades anuals acumulades fins l'últim dia disponible
2020 3,8 16,6 25,6 20,4 11,8 24,5 39,1 35,3 19 71 99 992 1.019 1.036   5,6 91,7 507,6
Últims 30 dies disponibles
18-10-2020 15,2     18,4     21,6 6,4 63 75 84 1.020 1.022 1.023 ENE 2,1 19,3 0,0
17-10-2020 12,9     17,7     21,8 8,9 41 60 74 1.017 1.018 1.020 SE 2,6 19,3 0,0
16-10-2020 12,2     16,2     19,8 7,6 35 51 73 1.017 1.019 1.020 ENE 3,2 25,7 0,0
15-10-2020 14,4     18,1     23,0 8,6 27 44 70 1.014 1.016 1.018 WNW 5,3 32,2 0,0
14-10-2020 15,5     18,6     21,2 5,7 59 72 82 1.010 1.011 1.015 ENE 3,1 29,0 0,0
13-10-2020 14,7     22,1     28,2 13,5 35 44 70 1.011 1.015 1.020 W 6,4 35,4 0,0
12-10-2020 15,2     18,3     22,2 7,0 34 45 63 1.020 1.022 1.024 W 6,1 41,8 0,0
11-10-2020 16,8     19,6     21,6 4,8 39 58 92 1.021 1.022 1.024 NE 5,5 49,9 0,0
10-10-2020 18,6     21,5     25,5 6,9 70 83 91 1.021 1.022 1.024 ENE 1,6 17,7 0,8
09-10-2020 18,9     22,4     26,6 7,7 65 80 90 1.021 1.022 1.024 ESE 3,2 19,3 0,0
08-10-2020 17,3     21,8     25,1 7,8 59 76 88 1.022 1.024 1.026 ENE 2,4 27,4 0,0
07-10-2020 18,6     24,0     30,4 11,8 35 54 71 1.020 1.021 1.024 ENE 1,6 19,3 0,0
06-10-2020 15,9     22,1     27,8 11,9 36 49 65 1.019 1.021 1.023 W 2,7 32,2 0,0
05-10-2020 17,0     20,3     24,9 7,9 31 50 64 1.013 1.016 1.021 W 7,2 41,8 0,0
04-10-2020 14,6     20,1     25,8 11,2 35 48 59 1.008 1.011 1.013 W 6,6 49,9 0,0
03-10-2020 14,7     18,7     23,7 9,0 31 43 54 1.002 1.007 1.012 W 11,7 46,7 0,0
02-10-2020 13,9     22,2     28,4 14,5 40 52 88 992 999 1.006 W 14,5 69,2 4,8 0,39 0,60
01-10-2020 17,6     24,9     32,5 14,9 23 54 89 1.006 1.010 1.014 W 3,1 29,0 0,0
30-09-2020 16,7     21,6     26,3 9,6 65 79 91 1.013 1.016 1.019 S 2,0 22,5 0,0
29-09-2020 15,5     20,3     24,4 8,9 58 74 89 1.018 1.019 1.021 ENE 2,3 20,9 0,0
28-09-2020 16,9     20,8     24,3 7,4 32 52 77 1.015 1.017 1.019 W 3,4 24,1 0,0
27-09-2020 18,6     22,0     24,0 5,4 29 46 58 1.009 1.012 1.016 W 10,0 51,5 0,0
26-09-2020 17,1     21,9     27,0 9,9 28 38 46 1.012 1.017 1.021 W 7,2 32,2 0,0
25-09-2020 21,1     24,0     26,7 5,6 27 43 58 1.014 1.017 1.021 W 8,2 48,3 0,0
24-09-2020 22,7     27,1     32,2 9,5 39 51 61 1.012 1.014 1.016 W 4,5 35,4 0,0
23-09-2020 21,6     25,6     30,8 9,2 44 65 87 1.011 1.013 1.014 ENE 1,8 17,7 0,0
22-09-2020 20,4     24,8     28,8 8,4 53 74 88 1.012 1.015 1.017 WSW 2,4 19,3 0,0
21-09-2020 22,2     25,6     29,6 7,4 46 59 74 1.015 1.016 1.017 ENE 4,0 27,4 0,0
20-09-2020 22,3     26,1     31,9 9,6 36 54 65 1.015 1.017 1.018 W 7,9 37,0 0,0
19-09-2020 18,9     24,1     28,8 9,9 46 69 90 1.015 1.016 1.018 W 3,1 27,4 0,0
Últims 13 mesos disponibles
09/2020 15,5 20,2 22,9 24,1 24,0 28,2 32,2 16,7 38 68 80 1.012 1.018 1.024 ENE 4,0 51,5 36,0
08/2020 18,3 23,7 25,4 27,7 25,6 32,3 39,1 20,8 44 72 83 1.005 1.015 1.020 ENE 4,9 40,2 39,0
07/2020 20,7 23,4 25,6 26,9 27,8 30,8 37,1 16,4 57 75 83 1.012 1.017 1.021 ENE 5,1 40,2 6,0
06/2020 16,4 19,9 23,7 24,0 21,4 28,5 33,4 17,0 42 71 87 1.006 1.015 1.022 ENE 5,6 46,7 63,4
05/2020 12,9 17,3 20,7 21,6 20,6 25,9 32,6 19,7 47 70 83 1.006 1.018 1.028 ENE 4,8 54,7 50,4
04/2020 10,6 13,5 19,4 16,4 14,6 19,8 27,8 17,2 43 78 93 1.007 1.017 1.027 W 5,0 48,3 58,6
03/2020 7,4 11,9 18,3 14,9 11,8 18,4 24,9 17,5 41 72 94 1.008 1.018 1.028 W 8,6 91,7 112,2
02/2020 7,5 11,2 17,2 15,7 14,3 20,5 27,2 19,7 38 69 89 1.015 1.026 1.034 W 5,7 57,9 2,0
01/2020 3,8 8,9 16,8 12,3 12,4 16,1 22,5 18,7 54 75 97 1.016 1.026 1.034 W 7,2 88,5 134,4
12/2019 6,1 12,0 20,2 15,0 14,0 18,5 26,3 20,2 47 69 91 1.003 1.020 1.034 W 10,0 95,0 214,0
11/2019 8,7 13,5 22,7 16,7 15,6 20,4 27,9 19,2 43 55 75 1.000 1.012 1.019 W 12,2 72,4 12,4
10/2019 13,5 17,4 21,4 21,2 17,1 25,0 32,9 19,4 41 66 85 1.009 1.017 1.023 W 5,0 59,5 44,6
09/2019 15,3 21,0 24,3 24,4 23,3 27,6 35,3 20,0 42 74 90 1.011 1.019 1.025 S 6,2 77,8 58,6
Tots els anys disponibles
2019 4,2 15,6 27,3 19,2 11,6 22,9 39,2 35,0 30 66 94 996 1.018 1.035 SSE 7,2 95,0 597,8
2018 4,6 15,8 27,7 19,0 8,4 22,6 37,1 32,5 35 67 95 994 1.017 1.036 SSE 6,5 76,0 924,6
2017 1,4 16,3 26,9 19,8 9,6 23,3 39,0 37,6 33 68 93 1.002 1.017 1.038 SE 0,0 97,0 399,0
2016 4,8 16,0 25,6 19,4 12,4 22,8 39,6 34,8 29 66 93 993 1.017 1.036 93,0 543,9
Temperatura (°C)
Humitat relativa (%)
Velocitat del vent i ràfega màxima (km/h)
Direcció del vent (°)
Pressió (hPa)
Precipitació (mm)
Nota sobre les dades: s'avisa a l'usuari de la provisionalitat i no oficialitat d'aquestes dades
Logo AVAMET blanc
Web allotjada a Sollutia
Llicència de Creative CommonsLa web d'AVAMET i els seus continguts estan subjectes a una llicència de
Reconeixement - No Comercial - Compartir igual
Últimes estacions: Alfondeguilla (Soci), Santa Magdalena de Polpís (Soci),  Benafigos (Ajuntament Soci), Carlet - Ajuntament (Inforatge), Montroi (Inforatge), Bronchales (Limítrofe-Terol/Aj. Soci), Sueca - Muntanyeta dels Sants (Inforatge), Vilamarxant - Ajuntament (Aj. Soci/Inforatge), Monteagudo del Castillo - El Portero (Limítrofe-Terol/Soci), Calzadilla de los Barros (Limítrofe-Badajoz/Soci) - - -